sensor_id;sensor_type;location;lat;lon;timestamp;pressure;altitude;pressure_sealevel;temperature;humidity
39265;BME280;42646;51.910;7.724;2022-08-05T00:00:13;100802.25;;;21.46;72.82
39265;BME280;42646;51.910;7.724;2022-08-05T00:02:42;100779.16;;;21.44;73.49
39265;BME280;42646;51.910;7.724;2022-08-05T00:05:17;100787.69;;;21.41;74.09
39265;BME280;42646;51.910;7.724;2022-08-05T00:08:05;100752.69;;;21.32;75.30
39265;BME280;42646;51.910;7.724;2022-08-05T00:10:55;100757.63;;;21.22;76.62
39265;BME280;42646;51.910;7.724;2022-08-05T00:13:26;100749.09;;;21.12;77.69
39265;BME280;42646;51.910;7.724;2022-08-05T00:16:06;100725.97;;;21.03;78.34
39265;BME280;42646;51.910;7.724;2022-08-05T00:18:34;100715.34;;;20.95;79.17
39265;BME280;42646;51.910;7.724;2022-08-05T00:21:03;100703.69;;;20.88;79.74
39265;BME280;42646;51.910;7.724;2022-08-05T00:23:34;100698.06;;;20.83;80.28
39265;BME280;42646;51.910;7.724;2022-08-05T00:26:15;100718.19;;;20.73;80.69
39265;BME280;42646;51.910;7.724;2022-08-05T00:28:45;100725.69;;;20.71;81.06
39265;BME280;42646;51.910;7.724;2022-08-05T00:31:15;100732.75;;;20.66;81.67
39265;BME280;42646;51.910;7.724;2022-08-05T00:34:02;100746.66;;;20.63;81.34
39265;BME280;42646;51.910;7.724;2022-08-05T00:36:50;100754.34;;;20.59;81.39
39265;BME280;42646;51.910;7.724;2022-08-05T00:39:38;100749.53;;;20.54;81.35
39265;BME280;42646;51.910;7.724;2022-08-05T00:42:33;100735.78;;;20.49;81.84
39265;BME280;42646;51.910;7.724;2022-08-05T00:45:04;100727.25;;;20.46;81.75
39265;BME280;42646;51.910;7.724;2022-08-05T00:47:37;100736.56;;;20.43;81.90
39265;BME280;42646;51.910;7.724;2022-08-05T00:50:26;100742.56;;;20.39;82.08
39265;BME280;42646;51.910;7.724;2022-08-05T00:52:53;100736.53;;;20.37;82.38
39265;BME280;42646;51.910;7.724;2022-08-05T00:55:22;100741.50;;;20.33;82.59
39265;BME280;42646;51.910;7.724;2022-08-05T00:58:10;100741.91;;;20.30;83.02
39265;BME280;42646;51.910;7.724;2022-08-05T01:00:39;100743.31;;;20.26;83.29
39265;BME280;42646;51.910;7.724;2022-08-05T01:03:08;100744.78;;;20.22;83.44
39265;BME280;42646;51.910;7.724;2022-08-05T01:05:48;100749.75;;;20.18;83.43
39265;BME280;42646;51.910;7.724;2022-08-05T01:08:16;100753.03;;;20.14;83.62
39265;BME280;42646;51.910;7.724;2022-08-05T01:11:08;100756.31;;;20.09;83.63
39265;BME280;42646;51.910;7.724;2022-08-05T01:13:46;100755.91;;;20.06;85.05
39265;BME280;42646;51.910;7.724;2022-08-05T01:16:28;100761.06;;;20.00;85.47
39265;BME280;42646;51.910;7.724;2022-08-05T01:19:00;100763.31;;;19.97;85.55
39265;BME280;42646;51.910;7.724;2022-08-05T01:22:05;100769.31;;;19.92;86.16
39265;BME280;42646;51.910;7.724;2022-08-05T01:24:56;100766.38;;;19.87;86.32
39265;BME280;42646;51.910;7.724;2022-08-05T01:27:45;100766.13;;;19.82;86.30
39265;BME280;42646;51.910;7.724;2022-08-05T01:30:22;100772.28;;;19.76;87.28
39265;BME280;42646;51.910;7.724;2022-08-05T01:33:01;100770.38;;;19.70;87.71
39265;BME280;42646;51.910;7.724;2022-08-05T01:35:37;100782.59;;;19.66;88.53
39265;BME280;42646;51.910;7.724;2022-08-05T01:38:19;100780.47;;;19.61;89.21
39265;BME280;42646;51.910;7.724;2022-08-05T01:40:57;100780.88;;;19.58;89.97
39265;BME280;42646;51.910;7.724;2022-08-05T01:43:29;100788.09;;;19.58;90.31
39265;BME280;42646;51.910;7.724;2022-08-05T01:45:59;100790.13;;;19.56;91.31
39265;BME280;42646;51.910;7.724;2022-08-05T01:48:43;100797.81;;;19.52;92.24
39265;BME280;42646;51.910;7.724;2022-08-05T01:51:16;100802.38;;;19.52;93.45
39265;BME280;42646;51.910;7.724;2022-08-05T01:53:47;100800.88;;;19.49;94.50
39265;BME280;42646;51.910;7.724;2022-08-05T01:56:27;100804.81;;;19.46;95.60
39265;BME280;42646;51.910;7.724;2022-08-05T01:59:19;100799.41;;;19.46;96.02
39265;BME280;42646;51.910;7.724;2022-08-05T02:01:50;100796.25;;;19.43;96.75
39265;BME280;42646;51.910;7.724;2022-08-05T02:04:25;100797.91;;;19.44;97.00
39265;BME280;42646;51.910;7.724;2022-08-05T02:06:56;100804.81;;;19.46;96.80
39265;BME280;42646;51.910;7.724;2022-08-05T02:09:24;100796.03;;;19.44;97.49
39265;BME280;42646;51.910;7.724;2022-08-05T02:12:00;100798.94;;;19.43;98.68
39265;BME280;42646;51.910;7.724;2022-08-05T02:14:32;100801.84;;;19.41;98.97
39265;BME280;42646;51.910;7.724;2022-08-05T02:17:06;100805.75;;;19.39;99.52
39265;BME280;42646;51.910;7.724;2022-08-05T02:19:43;100802.47;;;19.43;99.03
39265;BME280;42646;51.910;7.724;2022-08-05T02:22:18;100795.81;;;19.39;99.49
39265;BME280;42646;51.910;7.724;2022-08-05T02:24:56;100798.53;;;19.39;99.83
39265;BME280;42646;51.910;7.724;2022-08-05T02:27:26;100808.44;;;19.39;100.00
39265;BME280;42646;51.910;7.724;2022-08-05T02:30:16;100810.97;;;19.40;100.00
39265;BME280;42646;51.910;7.724;2022-08-05T02:32:48;100812.19;;;19.38;100.00
39265;BME280;42646;51.910;7.724;2022-08-05T02:35:19;100814.88;;;19.38;100.00
39265;BME280;42646;51.910;7.724;2022-08-05T02:37:58;100824.63;;;19.39;100.00
39265;BME280;42646;51.910;7.724;2022-08-05T02:40:28;100831.72;;;19.40;100.00
39265;BME280;42646;51.910;7.724;2022-08-05T02:42:58;100836.91;;;19.41;100.00
39265;BME280;42646;51.910;7.724;2022-08-05T02:45:28;100830.50;;;19.42;100.00
39265;BME280;42646;51.910;7.724;2022-08-05T02:48:19;100843.78;;;19.44;100.00
39265;BME280;42646;51.910;7.724;2022-08-05T02:50:57;100838.38;;;19.44;100.00
39265;BME280;42646;51.910;7.724;2022-08-05T02:53:26;100841.91;;;19.44;100.00
39265;BME280;42646;51.910;7.724;2022-08-05T02:56:06;100843.16;;;19.42;100.00
39265;BME280;42646;51.910;7.724;2022-08-05T02:58:35;100834.59;;;19.38;100.00
39265;BME280;42646;51.910;7.724;2022-08-05T03:01:14;100830.91;;;19.39;100.00
39265;BME280;42646;51.910;7.724;2022-08-05T03:03:48;100837.50;;;19.37;100.00
39265;BME280;42646;51.910;7.724;2022-08-05T03:06:34;100840.00;;;19.38;100.00
39265;BME280;42646;51.910;7.724;2022-08-05T03:09:23;100844.75;;;19.36;100.00
39265;BME280;42646;51.910;7.724;2022-08-05T03:12:05;100847.09;;;19.39;100.00
39265;BME280;42646;51.910;7.724;2022-08-05T03:14:33;100851.81;;;19.37;100.00
39265;BME280;42646;51.910;7.724;2022-08-05T03:17:12;100840.38;;;19.35;100.00
39265;BME280;42646;51.910;7.724;2022-08-05T03:19:40;100850.53;;;19.33;100.00
39265;BME280;42646;51.910;7.724;2022-08-05T03:22:11;100841.59;;;19.33;100.00
39265;BME280;42646;51.910;7.724;2022-08-05T03:24:43;100846.97;;;19.33;100.00
39265;BME280;42646;51.910;7.724;2022-08-05T03:27:16;100839.91;;;19.32;100.00
39265;BME280;42646;51.910;7.724;2022-08-05T03:29:45;100842.63;;;19.32;100.00
39265;BME280;42646;51.910;7.724;2022-08-05T03:32:34;100833.63;;;19.25;100.00
39265;BME280;42646;51.910;7.724;2022-08-05T03:35:04;100845.25;;;19.25;100.00
39265;BME280;42646;51.910;7.724;2022-08-05T03:37:34;100838.19;;;19.24;100.00
39265;BME280;42646;51.910;7.724;2022-08-05T03:40:13;100836.72;;;19.21;100.00
39265;BME280;42646;51.910;7.724;2022-08-05T03:42:57;100844.34;;;19.18;100.00
39265;BME280;42646;51.910;7.724;2022-08-05T03:45:41;100834.13;;;19.13;100.00
39265;BME280;42646;51.910;7.724;2022-08-05T03:48:25;100838.03;;;19.11;100.00
39265;BME280;42646;51.910;7.724;2022-08-05T03:51:00;100835.72;;;19.08;100.00
39265;BME280;42646;51.910;7.724;2022-08-05T03:53:54;100835.72;;;19.08;100.00
39265;BME280;42646;51.910;7.724;2022-08-05T03:56:45;100830.97;;;19.10;100.00
39265;BME280;42646;51.910;7.724;2022-08-05T03:59:15;100825.19;;;19.13;100.00
39265;BME280;42646;51.910;7.724;2022-08-05T04:01:49;100825.59;;;19.10;100.00
39265;BME280;42646;51.910;7.724;2022-08-05T04:04:20;100832.84;;;19.09;100.00
39265;BME280;42646;51.910;7.724;2022-08-05T04:06:52;100823.88;;;19.09;100.00
39265;BME280;42646;51.910;7.724;2022-08-05T04:09:22;100808.56;;;19.09;100.00
39265;BME280;42646;51.910;7.724;2022-08-05T04:11:52;100796.75;;;19.10;100.00
39265;BME280;42646;51.910;7.724;2022-08-05T04:14:23;100780.56;;;19.10;100.00
39265;BME280;42646;51.910;7.724;2022-08-05T04:16:57;100778.91;;;19.09;100.00
39265;BME280;42646;51.910;7.724;2022-08-05T04:19:27;100765.44;;;19.09;100.00
39265;BME280;42646;51.910;7.724;2022-08-05T04:21:56;100747.13;;;19.05;100.00
39265;BME280;42646;51.910;7.724;2022-08-05T04:24:38;100730.47;;;19.01;100.00
39265;BME280;42646;51.910;7.724;2022-08-05T04:27:17;100706.19;;;19.01;100.00
39265;BME280;42646;51.910;7.724;2022-08-05T04:30:06;100671.50;;;18.91;100.00
39265;BME280;42646;51.910;7.724;2022-08-05T04:32:35;100693.63;;;18.87;100.00
39265;BME280;42646;51.910;7.724;2022-08-05T04:35:07;100709.06;;;18.78;100.00
39265;BME280;42646;51.910;7.724;2022-08-05T04:37:44;100738.09;;;18.76;100.00
39265;BME280;42646;51.910;7.724;2022-08-05T04:40:33;100747.56;;;18.72;100.00
39265;BME280;42646;51.910;7.724;2022-08-05T04:43:02;100748.78;;;18.70;100.00
39265;BME280;42646;51.910;7.724;2022-08-05T04:45:30;100730.97;;;18.68;100.00
39265;BME280;42646;51.910;7.724;2022-08-05T04:48:14;100744.59;;;18.67;100.00
39265;BME280;42646;51.910;7.724;2022-08-05T04:50:55;100780.81;;;18.64;100.00
39265;BME280;42646;51.910;7.724;2022-08-05T04:53:29;100796.78;;;18.66;100.00
39265;BME280;42646;51.910;7.724;2022-08-05T04:56:00;100809.63;;;18.64;100.00
39265;BME280;42646;51.910;7.724;2022-08-05T04:58:48;100822.00;;;18.58;100.00
39265;BME280;42646;51.910;7.724;2022-08-05T05:01:16;100833.31;;;18.54;100.00
39265;BME280;42646;51.910;7.724;2022-08-05T05:04:04;100840.97;;;18.50;100.00
39265;BME280;42646;51.910;7.724;2022-08-05T05:06:34;100845.03;;;18.46;100.00
39265;BME280;42646;51.910;7.724;2022-08-05T05:09:11;100836.31;;;18.44;100.00
39265;BME280;42646;51.910;7.724;2022-08-05T05:11:43;100838.53;;;18.40;100.00
39265;BME280;42646;51.910;7.724;2022-08-05T05:14:23;100850.34;;;18.39;100.00
39265;BME280;42646;51.910;7.724;2022-08-05T05:16:58;100851.16;;;18.40;100.00
39265;BME280;42646;51.910;7.724;2022-08-05T05:19:26;100851.53;;;18.37;100.00
39265;BME280;42646;51.910;7.724;2022-08-05T05:22:11;100853.56;;;18.35;100.00
39265;BME280;42646;51.910;7.724;2022-08-05T05:24:50;100859.16;;;18.33;100.00
39265;BME280;42646;51.910;7.724;2022-08-05T05:27:25;100867.59;;;18.30;100.00
39265;BME280;42646;51.910;7.724;2022-08-05T05:30:13;100874.19;;;18.28;100.00
39265;BME280;42646;51.910;7.724;2022-08-05T05:32:56;100880.75;;;18.25;100.00
39265;BME280;42646;51.910;7.724;2022-08-05T05:35:27;100872.38;;;18.20;100.00
39265;BME280;42646;51.910;7.724;2022-08-05T05:38:04;100863.47;;;18.20;100.00
39265;BME280;42646;51.910;7.724;2022-08-05T05:40:38;100855.22;;;18.21;100.00
39265;BME280;42646;51.910;7.724;2022-08-05T05:43:16;100865.16;;;18.21;100.00
39265;BME280;42646;51.910;7.724;2022-08-05T05:46:04;100879.28;;;18.23;100.00
39265;BME280;42646;51.910;7.724;2022-08-05T05:48:41;100878.44;;;18.22;100.00
39265;BME280;42646;51.910;7.724;2022-08-05T05:51:09;100867.69;;;18.22;100.00
39265;BME280;42646;51.910;7.724;2022-08-05T05:53:43;100850.50;;;18.23;100.00
39265;BME280;42646;51.910;7.724;2022-08-05T05:56:26;100849.66;;;18.23;100.00
39265;BME280;42646;51.910;7.724;2022-08-05T05:59:00;100839.53;;;18.25;100.00
39265;BME280;42646;51.910;7.724;2022-08-05T06:01:29;100841.38;;;18.24;100.00
39265;BME280;42646;51.910;7.724;2022-08-05T06:04:05;100837.84;;;18.24;100.00
39265;BME280;42646;51.910;7.724;2022-08-05T06:06:38;100834.53;;;18.22;100.00
39265;BME280;42646;51.910;7.724;2022-08-05T06:09:09;100834.69;;;18.20;100.00
39265;BME280;42646;51.910;7.724;2022-08-05T06:11:44;100842.75;;;18.20;100.00
39265;BME280;42646;51.910;7.724;2022-08-05T06:14:25;100855.88;;;18.23;100.00
39265;BME280;42646;51.910;7.724;2022-08-05T06:16:54;100871.00;;;18.24;100.00
39265;BME280;42646;51.910;7.724;2022-08-05T06:19:23;100873.06;;;18.22;100.00
39265;BME280;42646;51.910;7.724;2022-08-05T06:21:59;100874.09;;;18.21;100.00
39265;BME280;42646;51.910;7.724;2022-08-05T06:24:28;100879.28;;;18.23;100.00
39265;BME280;42646;51.910;7.724;2022-08-05T06:26:56;100880.13;;;18.23;100.00
39265;BME280;42646;51.910;7.724;2022-08-05T06:29:24;100885.69;;;18.22;100.00
39265;BME280;42646;51.910;7.724;2022-08-05T06:32:12;100884.03;;;18.21;100.00
39265;BME280;42646;51.910;7.724;2022-08-05T06:34:51;100879.47;;;18.21;100.00
39265;BME280;42646;51.910;7.724;2022-08-05T06:37:23;100868.69;;;18.21;100.00
39265;BME280;42646;51.910;7.724;2022-08-05T06:40:12;100862.81;;;18.18;100.00
39265;BME280;42646;51.910;7.724;2022-08-05T06:42:47;100867.38;;;18.17;100.00
39265;BME280;42646;51.910;7.724;2022-08-05T06:45:19;100872.56;;;18.19;100.00
39265;BME280;42646;51.910;7.724;2022-08-05T06:48:07;100878.16;;;18.17;100.00
39265;BME280;42646;51.910;7.724;2022-08-05T06:50:55;100875.66;;;18.15;100.00
39265;BME280;42646;51.910;7.724;2022-08-05T06:53:22;100871.94;;;18.17;100.00
39265;BME280;42646;51.910;7.724;2022-08-05T06:55:55;100874.44;;;18.18;100.00
39265;BME280;42646;51.910;7.724;2022-08-05T06:58:24;100873.41;;;18.19;100.00
39265;BME280;42646;51.910;7.724;2022-08-05T07:01:03;100880.59;;;18.27;100.00
39265;BME280;42646;51.910;7.724;2022-08-05T07:03:32;100882.16;;;18.21;100.00
39265;BME280;42646;51.910;7.724;2022-08-05T07:06:01;100873.41;;;18.19;100.00
39265;BME280;42646;51.910;7.724;2022-08-05T07:08:40;100874.09;;;18.21;100.00
39265;BME280;42646;51.910;7.724;2022-08-05T07:11:14;100879.28;;;18.23;100.00
39265;BME280;42646;51.910;7.724;2022-08-05T07:13:48;100888.00;;;18.25;100.00
39265;BME280;42646;51.910;7.724;2022-08-05T07:16:45;100888.47;;;18.28;100.00
39265;BME280;42646;51.910;7.724;2022-08-05T07:19:36;100895.06;;;18.26;100.00
39265;BME280;42646;51.910;7.724;2022-08-05T07:22:23;100888.53;;;18.20;100.00
39265;BME280;42646;51.910;7.724;2022-08-05T07:24:56;100892.66;;;18.16;100.00
39265;BME280;42646;51.910;7.724;2022-08-05T07:27:26;100907.97;;;18.15;100.00
39265;BME280;42646;51.910;7.724;2022-08-05T07:30:13;100917.72;;;18.17;100.00
39265;BME280;42646;51.910;7.724;2022-08-05T07:32:53;100946.84;;;18.13;100.00
39265;BME280;42646;51.910;7.724;2022-08-05T07:35:22;100947.22;;;18.10;100.00
39265;BME280;42646;51.910;7.724;2022-08-05T07:38:10;100940.50;;;18.06;100.00
39265;BME280;42646;51.910;7.724;2022-08-05T07:40:58;100958.03;;;18.02;100.00
39265;BME280;42646;51.910;7.724;2022-08-05T07:43:48;100962.59;;;18.01;100.00
39265;BME280;42646;51.910;7.724;2022-08-05T07:46:16;100965.94;;;18.03;100.00
39265;BME280;42646;51.910;7.724;2022-08-05T07:48:51;100955.06;;;17.97;100.00
39265;BME280;42646;51.910;7.724;2022-08-05T07:51:35;100940.47;;;17.91;100.00
39265;BME280;42646;51.910;7.724;2022-08-05T07:54:18;100933.38;;;17.90;100.00
39265;BME280;42646;51.910;7.724;2022-08-05T07:56:51;100941.47;;;17.90;100.00
39265;BME280;42646;51.910;7.724;2022-08-05T07:59:40;100938.13;;;17.88;100.00
39265;BME280;42646;51.910;7.724;2022-08-05T08:02:09;100932.03;;;17.94;100.00
39265;BME280;42646;51.910;7.724;2022-08-05T08:04:44;100935.72;;;17.93;100.00
39265;BME280;42646;51.910;7.724;2022-08-05T08:07:13;100950.66;;;17.96;100.00
39265;BME280;42646;51.910;7.724;2022-08-05T08:09:41;100940.41;;;17.99;100.00
39265;BME280;42646;51.910;7.724;2022-08-05T08:12:09;100947.25;;;18.02;100.00
39265;BME280;42646;51.910;7.724;2022-08-05T08:15:00;100975.50;;;18.06;100.00
39265;BME280;42646;51.910;7.724;2022-08-05T08:17:29;101006.47;;;18.10;100.00
39265;BME280;42646;51.910;7.724;2022-08-05T08:19:57;101014.53;;;18.10;100.00
39265;BME280;42646;51.910;7.724;2022-08-05T08:22:49;100993.72;;;18.04;100.00
39265;BME280;42646;51.910;7.724;2022-08-05T08:25:17;100977.91;;;18.01;100.00
39265;BME280;42646;51.910;7.724;2022-08-05T08:28:05;100980.78;;;17.99;100.00
39265;BME280;42646;51.910;7.724;2022-08-05T08:30:45;100993.88;;;18.02;100.00
39265;BME280;42646;51.910;7.724;2022-08-05T08:33:15;100986.47;;;18.04;100.00
39265;BME280;42646;51.910;7.724;2022-08-05T08:35:45;100987.31;;;18.05;100.00
39265;BME280;42646;51.910;7.724;2022-08-05T08:38:23;100985.44;;;18.05;100.00
39265;BME280;42646;51.910;7.724;2022-08-05T08:41:04;100986.09;;;18.07;100.00
39265;BME280;42646;51.910;7.724;2022-08-05T08:43:35;100993.00;;;18.10;100.00
39265;BME280;42646;51.910;7.724;2022-08-05T08:46:26;100988.63;;;18.09;100.00
39265;BME280;42646;51.910;7.724;2022-08-05T08:48:54;100990.94;;;18.12;100.00
39265;BME280;42646;51.910;7.724;2022-08-05T08:51:46;100997.69;;;18.08;100.00
39265;BME280;42646;51.910;7.724;2022-08-05T08:54:32;101001.59;;;18.05;100.00
39265;BME280;42646;51.910;7.724;2022-08-05T08:57:04;101010.03;;;18.02;100.00
39265;BME280;42646;51.910;7.724;2022-08-05T08:59:37;101016.44;;;18.01;100.00
39265;BME280;42646;51.910;7.724;2022-08-05T09:02:14;101020.13;;;18.00;100.00
39265;BME280;42646;51.910;7.724;2022-08-05T09:04:44;101020.66;;;17.96;100.00
39265;BME280;42646;51.910;7.724;2022-08-05T09:07:32;101023.72;;;17.93;100.00
39265;BME280;42646;51.910;7.724;2022-08-05T09:10:21;101026.75;;;17.89;100.00
39265;BME280;42646;51.910;7.724;2022-08-05T09:12:55;101028.16;;;17.85;100.00
39265;BME280;42646;51.910;7.724;2022-08-05T09:15:30;101030.16;;;17.83;100.00
39265;BME280;42646;51.910;7.724;2022-08-05T09:18:06;101034.88;;;17.81;100.00
39265;BME280;42646;51.910;7.724;2022-08-05T09:20:35;101041.94;;;17.82;100.00
39265;BME280;42646;51.910;7.724;2022-08-05T09:23:05;101034.88;;;17.81;100.00
39265;BME280;42646;51.910;7.724;2022-08-05T09:25:35;101041.09;;;17.82;100.00
39265;BME280;42646;51.910;7.724;2022-08-05T09:28:24;101037.41;;;17.83;100.00
39265;BME280;42646;51.910;7.724;2022-08-05T09:31:01;101042.59;;;17.84;100.00
39265;BME280;42646;51.910;7.724;2022-08-05T09:33:53;101047.81;;;17.86;100.00
39265;BME280;42646;51.910;7.724;2022-08-05T09:36:21;101059.06;;;17.89;100.00
39265;BME280;42646;51.910;7.724;2022-08-05T09:39:02;101060.72;;;17.91;100.00
39265;BME280;42646;51.910;7.724;2022-08-05T09:41:54;101067.97;;;17.90;100.00
39265;BME280;42646;51.910;7.724;2022-08-05T09:44:34;101077.91;;;17.89;100.00
39265;BME280;42646;51.910;7.724;2022-08-05T09:47:11;101079.94;;;17.87;100.00
39265;BME280;42646;51.910;7.724;2022-08-05T09:49:44;101081.63;;;17.88;100.00
39265;BME280;42646;51.910;7.724;2022-08-05T09:52:30;101077.06;;;17.89;100.00
39265;BME280;42646;51.910;7.724;2022-08-05T09:55:00;101067.63;;;17.93;100.00
39265;BME280;42646;51.910;7.724;2022-08-05T09:57:48;101069.81;;;17.98;100.00
39265;BME280;42646;51.910;7.724;2022-08-05T10:00:25;101083.59;;;18.03;100.00
39265;BME280;42646;51.910;7.724;2022-08-05T10:02:56;101082.56;;;18.04;100.00
39265;BME280;42646;51.910;7.724;2022-08-05T10:05:27;101076.16;;;18.05;100.00
39265;BME280;42646;51.910;7.724;2022-08-05T10:08:00;101081.00;;;18.09;100.00
39265;BME280;42646;51.910;7.724;2022-08-05T10:10:49;101085.84;;;18.14;100.00
39265;BME280;42646;51.910;7.724;2022-08-05T10:13:25;101081.78;;;18.18;100.00
39265;BME280;42646;51.910;7.724;2022-08-05T10:16:28;101082.16;;;18.15;100.00
39265;BME280;42646;51.910;7.724;2022-08-05T10:18:58;101086.72;;;18.14;100.00
39265;BME280;42646;51.910;7.724;2022-08-05T10:21:27;101100.00;;;18.16;100.00
39265;BME280;42646;51.910;7.724;2022-08-05T10:24:14;101107.69;;;18.19;100.00
39265;BME280;42646;51.910;7.724;2022-08-05T10:26:45;101114.25;;;18.25;100.00
39265;BME280;42646;51.910;7.724;2022-08-05T10:29:19;101119.28;;;18.28;100.00
39265;BME280;42646;51.910;7.724;2022-08-05T10:32:07;101119.94;;;18.30;100.00
39265;BME280;42646;51.910;7.724;2022-08-05T10:34:55;101120.44;;;18.33;100.00
39265;BME280;42646;51.910;7.724;2022-08-05T10:37:26;101131.66;;;18.37;100.00
39265;BME280;42646;51.910;7.724;2022-08-05T10:40:19;101139.75;;;18.37;100.00
39265;BME280;42646;51.910;7.724;2022-08-05T10:42:58;101145.00;;;18.38;100.00
39265;BME280;42646;51.910;7.724;2022-08-05T10:45:30;101148.19;;;18.34;100.00
39265;BME280;42646;51.910;7.724;2022-08-05T10:51:23;101154.78;;;18.31;100.00
39265;BME280;42646;51.910;7.724;2022-08-05T10:53:56;101155.44;;;18.33;100.00
39265;BME280;42646;51.910;7.724;2022-08-05T10:56:44;101163.84;;;18.38;100.00
39265;BME280;42646;51.910;7.724;2022-08-05T10:59:16;101165.16;;;18.42;100.00
39265;BME280;42646;51.910;7.724;2022-08-05T11:02:07;101165.47;;;18.48;100.00
39265;BME280;42646;51.910;7.724;2022-08-05T11:04:55;101175.19;;;18.57;100.00
39265;BME280;42646;51.910;7.724;2022-08-05T11:07:23;101178.66;;;18.65;100.00
39265;BME280;42646;51.910;7.724;2022-08-05T11:10:20;101176.94;;;18.73;100.00
39265;BME280;42646;51.910;7.724;2022-08-05T11:12:56;101186.56;;;18.75;100.00
39265;BME280;42646;51.910;7.724;2022-08-05T11:15:27;101192.91;;;18.82;100.00
39265;BME280;42646;51.910;7.724;2022-08-05T11:18:27;101192.81;;;18.90;100.00
39265;BME280;42646;51.910;7.724;2022-08-05T11:20:59;101204.22;;;19.01;100.00
39265;BME280;42646;51.910;7.724;2022-08-05T11:23:34;101196.97;;;19.01;98.13
39265;BME280;42646;51.910;7.724;2022-08-05T11:26:22;101196.97;;;19.01;97.02
39265;BME280;42646;51.910;7.724;2022-08-05T11:28:56;101199.13;;;19.06;95.80
39265;BME280;42646;51.910;7.724;2022-08-05T11:31:38;101205.66;;;19.11;95.23
39265;BME280;42646;51.910;7.724;2022-08-05T11:34:38;101197.69;;;19.18;94.79
39265;BME280;42646;51.910;7.724;2022-08-05T11:37:57;101194.59;;;19.21;92.38
39265;BME280;42646;51.910;7.724;2022-08-05T11:40:56;101192.31;;;19.33;90.70
39265;BME280;42646;51.910;7.724;2022-08-05T11:43:52;101194.13;;;19.40;89.58
39265;BME280;42646;51.910;7.724;2022-08-05T11:46:35;101205.66;;;19.49;88.87
39265;BME280;42646;51.910;7.724;2022-08-05T11:49:23;101198.19;;;19.59;90.05
39265;BME280;42646;51.910;7.724;2022-08-05T11:51:52;101192.53;;;19.69;89.88
39265;BME280;42646;51.910;7.724;2022-08-05T11:54:24;101194.09;;;19.78;88.47
39265;BME280;42646;51.910;7.724;2022-08-05T11:57:01;101207.88;;;19.83;87.06
39265;BME280;42646;51.910;7.724;2022-08-05T11:59:33;101201.94;;;19.88;86.15
39265;BME280;42646;51.910;7.724;2022-08-05T12:02:22;101207.03;;;19.97;86.39
39265;BME280;42646;51.910;7.724;2022-08-05T12:04:59;101207.59;;;20.08;87.32
39265;BME280;42646;51.910;7.724;2022-08-05T12:07:43;101210.03;;;20.17;88.54
39265;BME280;42646;51.910;7.724;2022-08-05T12:10:35;101209.28;;;20.23;86.70
39265;BME280;42646;51.910;7.724;2022-08-05T12:13:10;101208.06;;;20.26;84.60
39265;BME280;42646;51.910;7.724;2022-08-05T12:15:44;101204.59;;;20.32;82.96
39265;BME280;42646;51.910;7.724;2022-08-05T12:18:22;101208.03;;;20.41;82.62
39265;BME280;42646;51.910;7.724;2022-08-05T12:21:08;101203.59;;;20.48;81.29
39265;BME280;42646;51.910;7.724;2022-08-05T12:23:36;101202.56;;;20.49;81.60
39265;BME280;42646;51.910;7.724;2022-08-05T12:26:08;101195.41;;;20.63;82.57
39265;BME280;42646;51.910;7.724;2022-08-05T12:28:36;101203.94;;;20.81;83.18
39265;BME280;42646;51.910;7.724;2022-08-05T12:31:04;101207.44;;;20.96;81.21
39265;BME280;42646;51.910;7.724;2022-08-05T12:33:33;101208.22;;;21.12;80.12
39265;BME280;42646;51.910;7.724;2022-08-05T12:36:05;101203.50;;;21.20;79.63
39265;BME280;42646;51.910;7.724;2022-08-05T12:38:35;101215.22;;;21.27;78.12
39265;BME280;42646;51.910;7.724;2022-08-05T12:41:07;101213.03;;;21.38;78.80
39265;BME280;42646;51.910;7.724;2022-08-05T12:43:50;101214.38;;;21.48;78.74
39265;BME280;42646;51.910;7.724;2022-08-05T12:46:23;101216.06;;;21.49;75.75
39265;BME280;42646;51.910;7.724;2022-08-05T12:49:03;101217.72;;;21.50;75.56
39265;BME280;42646;51.910;7.724;2022-08-05T12:51:43;101220.22;;;21.52;72.93
39265;BME280;42646;51.910;7.724;2022-08-05T12:54:31;101225.44;;;21.47;73.95
39265;BME280;42646;51.910;7.724;2022-08-05T12:57:00;101227.09;;;21.48;75.08
39265;BME280;42646;51.910;7.724;2022-08-05T12:59:30;101235.63;;;21.51;75.23
39265;BME280;42646;51.910;7.724;2022-08-05T13:02:20;101234.84;;;21.57;74.27
39265;BME280;42646;51.910;7.724;2022-08-05T13:04:57;101236.16;;;21.62;74.88
39265;BME280;42646;51.910;7.724;2022-08-05T13:07:25;101241.78;;;21.60;73.88
39265;BME280;42646;51.910;7.724;2022-08-05T13:10:14;101242.19;;;21.64;71.95
39265;BME280;42646;51.910;7.724;2022-08-05T13:12:45;101230.81;;;21.75;72.53
39265;BME280;42646;51.910;7.724;2022-08-05T13:15:28;101240.69;;;21.82;71.20
39265;BME280;42646;51.910;7.724;2022-08-05T13:18:15;101241.34;;;21.91;71.46
39265;BME280;42646;51.910;7.724;2022-08-05T13:20:47;101239.28;;;21.93;71.67
39265;BME280;42646;51.910;7.724;2022-08-05T13:23:15;101244.31;;;21.96;70.94
39265;BME280;42646;51.910;7.724;2022-08-05T13:25:49;101242.81;;;21.94;70.31
39265;BME280;42646;51.910;7.724;2022-08-05T13:28:26;101243.81;;;21.86;70.32
39265;BME280;42646;51.910;7.724;2022-08-05T13:30:57;101246.94;;;21.83;70.70
39265;BME280;42646;51.910;7.724;2022-08-05T13:33:36;101250.19;;;21.72;71.39
39265;BME280;42646;51.910;7.724;2022-08-05T13:36:25;101258.69;;;21.69;71.69
39265;BME280;42646;51.910;7.724;2022-08-05T13:38:54;101257.47;;;21.71;72.24